createdAt,value
2023-02-22T00:01:19.166Z,2.30
2023-02-22T00:04:21.287Z,1.40
2023-02-22T00:07:23.821Z,1.70
2023-02-22T00:10:27.338Z,1.85
2023-02-22T00:13:29.628Z,2.47
2023-02-22T00:16:31.721Z,1.55
2023-02-22T00:19:33.985Z,1.65
2023-02-22T00:22:35.733Z,2.75
2023-02-22T00:25:38.738Z,1.67
2023-02-22T00:28:42.329Z,4.72
2023-02-22T00:31:44.172Z,3.40
2023-02-22T00:34:47.795Z,2.30
2023-02-22T00:37:50.430Z,2.75
2023-02-22T00:40:53.447Z,3.38
2023-02-22T00:43:55.062Z,2.20
2023-02-22T00:46:56.712Z,4.13
2023-02-22T00:49:58.456Z,3.65
2023-02-22T00:53:01.921Z,2.60
2023-02-22T00:56:05.848Z,2.85
2023-02-22T00:59:07.660Z,2.08
2023-02-22T01:02:10.535Z,2.97
2023-02-22T01:05:14.643Z,2.83
2023-02-22T01:08:17.736Z,2.70
2023-02-22T01:11:22.243Z,3.17
2023-02-22T01:14:26.645Z,2.28
2023-02-22T01:17:28.458Z,2.13
2023-02-22T01:20:31.472Z,4.57
2023-02-22T01:23:33.450Z,3.88
2023-02-22T01:26:37.846Z,4.32
2023-02-22T01:29:39.670Z,4.07
2023-02-22T01:32:42.346Z,3.85
2023-02-22T01:35:46.133Z,4.70
2023-02-22T01:38:47.770Z,3.05
2023-02-22T01:41:53.538Z,3.47
2023-02-22T01:45:34.082Z,5.07
2023-02-22T01:48:41.440Z,3.20
2023-02-22T01:51:46.581Z,3.33
2023-02-22T01:54:51.457Z,3.90
2023-02-22T01:57:54.988Z,2.20
2023-02-22T02:01:48.043Z,3.42
2023-02-22T02:04:51.643Z,2.13
2023-02-22T02:07:54.177Z,7.40
2023-02-22T02:10:58.006Z,1.70
2023-02-22T02:14:01.290Z,4.78
2023-02-22T02:17:07.111Z,2.70
2023-02-22T02:20:17.210Z,6.47
2023-02-22T02:23:45.345Z,2.42
2023-02-22T02:27:12.330Z,2.15
2023-02-22T02:30:41.246Z,2.67
2023-02-22T02:33:53.096Z,3.85
2023-02-22T02:37:02.983Z,2.22
2023-02-22T02:40:12.086Z,1.58
2023-02-22T02:43:21.464Z,2.75
2023-02-22T02:46:27.383Z,2.80
2023-02-22T02:49:36.373Z,2.03
2023-02-22T02:52:44.129Z,1.55
2023-02-22T02:55:45.816Z,2.53
2023-02-22T02:58:49.854Z,1.15
2023-02-22T03:02:03.145Z,4.03
2023-02-22T03:05:26.241Z,1.42
2023-02-22T03:08:35.117Z,2.42
2023-02-22T03:11:48.519Z,2.05
2023-02-22T03:15:02.277Z,1.88
2023-02-22T03:18:08.849Z,2.25
2023-02-22T03:21:21.672Z,2.67
2023-02-22T03:24:27.968Z,2.15
2023-02-22T03:27:37.216Z,2.30
2023-02-22T03:30:49.085Z,1.35
2023-02-22T03:33:54.363Z,2.75
2023-02-22T03:37:05.652Z,2.13
2023-02-22T03:40:14.652Z,2.35
2023-02-22T03:43:25.044Z,1.60
2023-02-22T03:46:31.613Z,2.08
2023-02-22T03:49:37.515Z,2.25
2023-02-22T03:52:44.258Z,1.95
2023-02-22T03:55:55.526Z,3.35
2023-02-22T03:58:57.792Z,2.58
2023-02-22T04:01:59.801Z,2.03
2023-02-22T04:05:02.124Z,3.55
2023-02-22T04:08:06.433Z,3.10
2023-02-22T04:11:08.370Z,4.00
2023-02-22T04:14:10.282Z,5.28
2023-02-22T04:17:12.121Z,3.78
2023-02-22T04:20:19.888Z,3.05
2023-02-22T04:23:33.844Z,3.03
2023-02-22T04:26:36.769Z,3.60
2023-02-22T04:29:43.428Z,1.40
2023-02-22T04:32:46.009Z,3.20
2023-02-22T04:35:49.618Z,1.70
2023-02-22T04:38:53.481Z,2.85
2023-02-22T04:41:58.978Z,1.90
2023-02-22T04:45:00.949Z,2.65
2023-02-22T04:48:02.998Z,3.30
2023-02-22T04:51:06.121Z,2.90
2023-02-22T04:54:09.761Z,2.90
2023-02-22T04:57:17.565Z,3.83
2023-02-22T05:00:22.827Z,3.35
2023-02-22T05:03:28.371Z,2.17
2023-02-22T05:06:33.296Z,2.13
2023-02-22T05:09:36.368Z,3.40
2023-02-22T05:12:38.245Z,2.83
2023-02-22T05:15:39.990Z,4.25
2023-02-22T05:18:42.124Z,2.78
2023-02-22T05:21:46.457Z,9.18
2023-02-22T05:24:58.848Z,3.10
2023-02-22T05:28:03.340Z,5.78
2023-02-22T05:31:05.679Z,3.28
2023-02-22T05:34:09.890Z,4.97
2023-02-22T05:37:11.641Z,3.88
2023-02-22T05:40:17.389Z,6.07
2023-02-22T05:43:20.264Z,2.92
2023-02-22T05:46:22.010Z,4.10
2023-02-22T05:49:23.937Z,3.58
2023-02-22T05:52:25.996Z,4.90
2023-02-22T05:55:29.093Z,3.90
2023-02-22T05:58:30.858Z,3.75
2023-02-22T06:01:32.587Z,3.17
2023-02-22T06:04:34.400Z,6.07
2023-02-22T06:07:36.253Z,5.13
2023-02-22T06:10:39.460Z,4.65
2023-02-22T06:13:41.380Z,7.05
2023-02-22T06:16:43.223Z,3.05
2023-02-22T06:19:45.677Z,5.43
2023-02-22T06:22:47.768Z,3.30
2023-02-22T06:25:53.426Z,3.10
2023-02-22T06:29:02.027Z,2.72
2023-02-22T06:32:05.837Z,5.43
2023-02-22T06:35:09.940Z,3.80
2023-02-22T06:38:11.688Z,7.85
2023-02-22T06:41:15.856Z,7.15
2023-02-22T06:44:17.917Z,9.32
2023-02-22T06:47:20.559Z,5.85
2023-02-22T06:50:25.134Z,9.35
2023-02-22T06:53:26.891Z,7.85
2023-02-22T06:56:30.243Z,5.60
2023-02-22T06:59:31.967Z,6.93
2023-02-22T07:02:33.644Z,5.55
2023-02-22T07:05:36.027Z,5.03
2023-02-22T07:08:39.258Z,7.18
2023-02-22T07:11:43.224Z,6.03
2023-02-22T07:14:44.925Z,3.67
2023-02-22T07:17:47.004Z,6.82
2023-02-22T07:20:52.101Z,6.22
2023-02-22T07:23:56.008Z,6.60
2023-02-22T07:27:01.097Z,5.00
2023-02-22T07:30:15.982Z,5.32
2023-02-22T07:33:18.359Z,9.63
2023-02-22T07:36:20.166Z,9.05
2023-02-22T07:39:21.935Z,7.97
2023-02-22T07:42:25.034Z,6.15
2023-02-22T07:45:28.792Z,4.45
2023-02-22T07:48:31.738Z,4.90
2023-02-22T07:51:33.547Z,7.38
2023-02-22T07:54:38.041Z,6.13
2023-02-22T07:57:43.338Z,4.95
2023-02-22T08:00:47.355Z,6.40
2023-02-22T08:03:57.049Z,8.25
2023-02-22T08:06:58.852Z,7.57
2023-02-22T08:10:00.885Z,6.32
2023-02-22T08:13:08.348Z,9.27
2023-02-22T08:16:10.178Z,7.07
2023-02-22T08:19:11.944Z,5.88
2023-02-22T08:22:13.615Z,7.32
2023-02-22T08:25:16.708Z,6.93
2023-02-22T08:28:23.232Z,7.72
2023-02-22T08:31:25.341Z,7.32
2023-02-22T08:34:27.620Z,7.10
2023-02-22T08:37:39.303Z,5.05
2023-02-22T08:40:41.356Z,8.80
2023-02-22T08:43:44.465Z,6.95
2023-02-22T08:46:48.864Z,7.80
2023-02-22T08:49:50.770Z,7.47
2023-02-22T08:52:53.575Z,10.73
2023-02-22T08:55:55.442Z,5.63
2023-02-22T08:58:58.782Z,10.55
2023-02-22T09:02:02.891Z,7.40
2023-02-22T09:05:05.777Z,7.82
2023-02-22T09:08:10.224Z,7.38
2023-02-22T09:11:12.362Z,9.75
2023-02-22T09:14:16.506Z,6.70
2023-02-22T09:17:18.451Z,10.23
2023-02-22T09:20:21.685Z,11.02
2023-02-22T09:23:23.941Z,13.07
2023-02-22T09:26:29.524Z,7.00
2023-02-22T09:29:32.765Z,6.60
2023-02-22T09:32:36.493Z,11.55
2023-02-22T09:35:42.398Z,7.78
2023-02-22T09:38:44.392Z,8.63
2023-02-22T09:41:56.310Z,4.97
2023-02-22T09:45:06.261Z,7.18
2023-02-22T09:48:21.264Z,8.55
2023-02-22T09:51:27.554Z,6.93
2023-02-22T09:54:34.316Z,6.20
2023-02-22T09:57:41.604Z,11.45
2023-02-22T10:00:51.498Z,7.85
2023-02-22T10:04:01.530Z,8.98
2023-02-22T10:07:12.329Z,7.15
2023-02-22T10:10:17.526Z,3.40
2023-02-22T10:13:28.946Z,6.97
2023-02-22T10:16:40.659Z,7.43
2023-02-22T10:19:54.751Z,7.32
2023-02-22T10:23:05.332Z,5.00
2023-02-22T10:26:16.430Z,7.80
2023-02-22T10:29:24.635Z,7.45
2023-02-22T10:32:35.450Z,9.55
2023-02-22T10:35:41.135Z,7.03
2023-02-22T10:38:53.223Z,8.05
2023-02-22T10:42:05.767Z,7.15
2023-02-22T10:45:20.251Z,5.00
2023-02-22T10:48:26.367Z,6.05
2023-02-22T10:51:31.505Z,8.73
2023-02-22T10:54:39.626Z,6.93
2023-02-22T10:57:44.469Z,6.05
2023-02-22T11:00:46.748Z,7.43
2023-02-22T11:04:00.104Z,5.72
2023-02-22T11:07:10.776Z,6.47
2023-02-22T11:10:12.861Z,5.75
2023-02-22T11:13:19.194Z,8.07
2023-02-22T11:16:28.118Z,8.68
2023-02-22T11:19:33.247Z,9.30
2023-02-22T11:22:41.075Z,6.25
2023-02-22T11:25:43.386Z,6.68
2023-02-22T11:28:55.958Z,7.45
2023-02-22T11:31:59.277Z,5.22
2023-02-22T11:35:20.792Z,5.03
2023-02-22T11:38:24.529Z,7.85
2023-02-22T11:41:28.071Z,9.38
2023-02-22T11:48:05.406Z,13.80
2023-02-22T11:51:17.527Z,9.23
2023-02-22T11:54:33.298Z,7.88
2023-02-22T11:57:50.330Z,11.02
2023-02-22T12:00:58.896Z,7.88
2023-02-22T12:04:42.406Z,6.30
2023-02-22T12:07:56.485Z,7.82
2023-02-22T12:11:06.353Z,6.03
2023-02-22T12:14:19.183Z,7.22
2023-02-22T12:17:43.675Z,8.60
2023-02-22T12:20:54.960Z,7.05
2023-02-22T12:24:04.544Z,6.40
2023-02-22T12:27:10.197Z,6.82
2023-02-22T12:30:18.028Z,5.70
2023-02-22T12:33:27.036Z,5.72
2023-02-22T12:36:36.783Z,6.85
2023-02-22T12:39:53.573Z,8.48
2023-02-22T12:43:00.755Z,6.25
2023-02-22T12:46:06.974Z,5.45
2023-02-22T12:49:17.702Z,7.32
2023-02-22T12:55:39.154Z,5.78
2023-02-22T12:58:49.393Z,5.35
2023-02-22T13:01:55.079Z,8.15
2023-02-22T13:04:57.291Z,6.75
2023-02-22T13:08:17.891Z,10.65
2023-02-22T13:11:27.993Z,6.88
2023-02-22T13:14:40.414Z,4.40
2023-02-22T13:18:08.435Z,9.38
2023-02-22T13:21:16.530Z,5.60
2023-02-22T13:24:26.094Z,11.05
2023-02-22T13:27:37.282Z,8.15
2023-02-22T13:30:43.163Z,6.60
2023-02-22T13:34:01.288Z,5.43
2023-02-22T13:37:34.242Z,6.85
2023-02-22T13:41:18.777Z,7.85
2023-02-22T13:44:53.510Z,6.10
2023-02-22T13:49:54.951Z,5.93
2023-02-22T13:52:58.840Z,3.83
2023-02-22T13:56:01.152Z,9.65
2023-02-22T13:59:04.972Z,8.80
2023-02-22T14:02:08.067Z,7.05
2023-02-22T14:05:51.971Z,7.38
2023-02-22T14:08:53.923Z,7.40
2023-02-22T14:11:56.973Z,8.18
2023-02-22T14:15:32.714Z,8.25
2023-02-22T14:18:37.545Z,7.30
2023-02-22T14:21:56.231Z,8.38
2023-02-22T14:24:58.754Z,7.90
2023-02-22T14:28:02.860Z,6.93
2023-02-22T14:31:07.717Z,6.38
2023-02-22T14:34:11.076Z,6.03
2023-02-22T14:37:18.442Z,8.52
2023-02-22T14:40:25.818Z,8.70
2023-02-22T14:43:27.714Z,10.63
2023-02-22T14:46:34.821Z,7.53
2023-02-22T14:49:42.809Z,7.88
2023-02-22T14:52:49.680Z,10.52
2023-02-22T14:55:56.711Z,9.63
2023-02-22T14:59:13.213Z,7.28
2023-02-22T15:02:15.696Z,7.63
2023-02-22T15:05:20.768Z,8.40
2023-02-22T15:08:28.362Z,7.65
2023-02-22T15:11:34.412Z,7.13
2023-02-22T15:14:41.679Z,11.13
2023-02-22T15:17:46.084Z,8.18
2023-02-22T15:20:49.240Z,10.13
2023-02-22T15:23:55.312Z,9.93
2023-02-22T15:27:05.915Z,8.85
2023-02-22T15:30:17.018Z,12.38
2023-02-22T15:33:24.690Z,8.38
2023-02-22T15:36:31.103Z,9.43
2023-02-22T15:39:34.610Z,8.85
2023-02-22T15:42:43.942Z,8.10
2023-02-22T15:45:46.283Z,11.93
2023-02-22T15:49:07.390Z,10.05
2023-02-22T15:52:19.700Z,7.35
2023-02-22T15:55:26.808Z,10.32
2023-02-22T15:58:29.962Z,9.40
2023-02-22T16:01:37.774Z,7.32
2023-02-22T16:04:42.160Z,7.72
2023-02-22T16:07:48.929Z,10.85
2023-02-22T16:10:59.827Z,10.13
2023-02-22T16:14:04.901Z,7.85
2023-02-22T16:17:29.607Z,15.75
2023-02-22T16:20:36.153Z,9.95
2023-02-22T16:23:47.294Z,7.03
2023-02-22T16:27:15.918Z,7.30
2023-02-22T16:30:26.637Z,7.80
2023-02-22T16:36:41.215Z,8.52
2023-02-22T16:39:46.070Z,9.57
2023-02-22T16:42:52.280Z,9.05
2023-02-22T16:45:54.175Z,10.23
2023-02-22T16:48:56.097Z,8.07
2023-02-22T16:52:01.411Z,8.45
2023-02-22T16:55:03.359Z,11.00
2023-02-22T16:58:09.792Z,9.30
2023-02-22T17:01:13.195Z,8.50
2023-02-22T17:04:17.994Z,9.73
2023-02-22T17:07:24.035Z,8.57
2023-02-22T17:10:26.794Z,8.55
2023-02-22T17:13:30.280Z,10.35
2023-02-22T17:16:32.172Z,10.27
2023-02-22T17:19:33.917Z,9.38
2023-02-22T17:22:35.650Z,12.23
2023-02-22T17:25:42.596Z,8.35
2023-02-22T17:28:48.332Z,7.80
2023-02-22T17:31:52.319Z,8.43
2023-02-22T17:34:54.148Z,10.18
2023-02-22T17:37:57.337Z,10.50
2023-02-22T17:41:01.241Z,8.75
2023-02-22T17:44:04.694Z,8.75
2023-02-22T17:47:06.552Z,10.18
2023-02-22T17:50:09.516Z,11.57
2023-02-22T17:53:11.975Z,8.90
2023-02-22T17:56:18.544Z,8.77
2023-02-22T17:59:21.840Z,13.00
2023-02-22T18:02:23.904Z,10.32
2023-02-22T18:05:26.675Z,14.73
2023-02-22T18:08:32.041Z,13.93
2023-02-22T18:11:33.921Z,12.25
2023-02-22T18:14:37.793Z,9.30
2023-02-22T18:17:39.756Z,11.75
2023-02-22T18:20:43.765Z,8.80
2023-02-22T18:23:46.051Z,9.75
2023-02-22T18:26:48.016Z,10.95
2023-02-22T18:29:51.659Z,9.57
2023-02-22T18:32:53.618Z,8.73
2023-02-22T18:35:55.472Z,9.93
2023-02-22T18:38:58.009Z,11.15
2023-02-22T18:41:59.982Z,10.18
2023-02-22T18:45:05.366Z,11.48
2023-02-22T18:48:07.276Z,12.85
2023-02-22T18:51:11.285Z,9.05
2023-02-22T18:54:13.280Z,7.40
2023-02-22T18:57:15.650Z,10.43
2023-02-22T19:00:24.841Z,8.75
2023-02-22T19:03:27.064Z,10.15
2023-02-22T19:06:29.132Z,10.07
2023-02-22T19:09:30.932Z,8.55
2023-02-22T19:12:33.758Z,8.48
2023-02-22T19:15:37.290Z,11.80
2023-02-22T19:18:39.302Z,15.88
2023-02-22T19:21:41.163Z,11.25
2023-02-22T19:24:45.970Z,9.18
2023-02-22T19:27:48.086Z,11.23
2023-02-22T19:30:51.551Z,8.73
2023-02-22T19:33:53.626Z,9.88
2023-02-22T19:36:56.041Z,9.73
2023-02-22T19:39:57.696Z,11.55
2023-02-22T19:42:59.597Z,8.68
2023-02-22T19:46:05.678Z,9.30
2023-02-22T19:49:07.843Z,9.95
2023-02-22T19:52:09.763Z,9.88
2023-02-22T19:55:14.392Z,13.07
2023-02-22T19:58:16.300Z,10.80
2023-02-22T20:01:24.212Z,9.02
2023-02-22T20:04:30.352Z,10.00
2023-02-22T20:07:32.293Z,12.98
2023-02-22T20:10:37.508Z,8.80
2023-02-22T20:13:40.863Z,8.60
2023-02-22T20:16:44.100Z,10.93
2023-02-22T20:19:54.210Z,13.52
2023-02-22T20:22:55.905Z,10.82
2023-02-22T20:25:58.074Z,11.77
2023-02-22T20:29:00.895Z,9.52
2023-02-22T20:32:05.579Z,8.57
2023-02-22T20:38:11.558Z,10.10
2023-02-22T20:41:15.093Z,12.77
2023-02-22T20:44:18.651Z,8.00
2023-02-22T20:47:21.723Z,12.63
2023-02-22T20:50:23.436Z,8.50
2023-02-22T20:53:25.350Z,12.00
2023-02-22T20:56:29.282Z,15.10
2023-02-22T20:59:31.023Z,12.48
2023-02-22T21:02:34.750Z,12.40
2023-02-22T21:05:41.703Z,12.73
2023-02-22T21:08:44.434Z,15.40
2023-02-22T21:11:47.323Z,12.02
2023-02-22T21:14:49.024Z,14.20
2023-02-22T21:17:53.940Z,11.77
2023-02-22T21:24:01.537Z,12.13
2023-02-22T21:27:03.750Z,12.27
2023-02-22T21:30:06.912Z,12.48
2023-02-22T21:33:10.664Z,11.70
2023-02-22T21:36:13.627Z,14.63
2023-02-22T21:39:19.082Z,13.63
2023-02-22T21:42:20.897Z,11.75
2023-02-22T21:45:22.663Z,15.90
2023-02-22T21:48:26.654Z,14.45
2023-02-22T21:51:33.122Z,16.08
2023-02-22T21:54:34.972Z,13.23
2023-02-22T21:57:37.611Z,14.98
2023-02-22T22:00:42.718Z,13.60
2023-02-22T22:03:48.676Z,15.15
2023-02-22T22:06:52.764Z,13.75
2023-02-22T22:09:56.545Z,14.25
2023-02-22T22:12:59.437Z,10.93
2023-02-22T22:16:03.989Z,13.82
2023-02-22T22:19:08.311Z,16.75
2023-02-22T22:22:10.703Z,12.18
2023-02-22T22:25:12.828Z,14.38
2023-02-22T22:28:14.518Z,15.57
2023-02-22T22:31:17.578Z,13.20
2023-02-22T22:34:24.386Z,18.13
2023-02-22T22:37:27.947Z,16.13
2023-02-22T22:40:29.789Z,15.65
2023-02-22T22:43:31.935Z,14.60
2023-02-22T22:46:33.859Z,15.80
2023-02-22T22:49:40.300Z,13.88
2023-02-22T22:52:42.049Z,14.43
2023-02-22T22:55:44.143Z,13.18
2023-02-22T22:58:48.205Z,15.65
2023-02-22T23:01:52.566Z,14.90
2023-02-22T23:04:55.863Z,13.82
2023-02-22T23:07:57.780Z,18.80
2023-02-22T23:11:10.251Z,13.65
2023-02-22T23:14:13.663Z,14.27
2023-02-22T23:17:42.394Z,16.60
2023-02-22T23:24:47.366Z,14.93
2023-02-22T23:28:14.686Z,11.93
2023-02-22T23:31:18.009Z,16.20
2023-02-22T23:34:23.222Z,19.85
2023-02-22T23:37:26.577Z,14.85
2023-02-22T23:40:31.968Z,14.93
2023-02-22T23:43:34.035Z,13.90
2023-02-22T23:46:36.481Z,15.38
2023-02-22T23:49:38.841Z,16.42
2023-02-22T23:52:43.787Z,12.02
2023-02-22T23:59:27.206Z,16.88
